Time;durP1;ratioP1;P1;durP2;ratioP2;P2;SDS_P1;SDS_P2;PMS_P1;PMS_P2;Temp;Humidity;BMP_temperature;BMP_pressure;BME280_temperature;BME280_humidity;BME280_pressure;Samples;Min_cycle;Max_cycle;Signal;HPM_P1;HPM_P2
2021/03/20 00:01:47;;;;;;;18.62;9.65;;;;;;;0.31;68.85;100153.83;1776446;79;21002;-69
2021/03/20 00:04:17;;;;;;;20.65;9.90;;;;;;;0.29;69.17;100148.73;1776795;79;20990;-69
2021/03/20 00:06:50;;;;;;;20.10;8.40;;;;;;;0.28;69.27;100151.30;1776612;79;20931;-69
2021/03/20 00:09:21;;;;;;;22.37;9.63;;;;;;;0.26;69.31;100157.73;1776674;80;21211;-69
2021/03/20 00:11:51;;;;;;;21.85;9.18;;;;;;;0.23;69.39;100152.64;1750654;80;20915;-69
2021/03/20 00:14:20;;;;;;;17.23;9.25;;;;;;;0.23;69.47;100146.67;1750019;81;20978;-69
2021/03/20 00:16:49;;;;;;;21.95;9.10;;;;;;;0.20;69.34;100151.83;1773872;81;20934;-70
2021/03/20 00:19:20;;;;;;;16.15;7.47;;;;;;;0.17;69.51;100146.73;1773832;80;20993;-70
2021/03/20 00:21:48;;;;;;;14.43;7.25;;;;;;;0.13;69.53;100149.77;1773888;81;21468;-69
2021/03/20 00:24:16;;;;;;;18.05;8.25;;;;;;;0.14;69.56;100146.78;1747933;81;20970;-69
2021/03/20 00:26:45;;;;;;;14.80;8.28;;;;;;;0.14;69.48;100150.19;1773801;80;20985;-70
2021/03/20 00:29:13;;;;;;;21.20;8.63;;;;;;;0.14;69.54;100152.74;1773698;81;21029;-70
2021/03/20 00:31:57;;;;;;;18.45;9.05;;;;;;;0.13;69.43;100152.33;1773759;80;20958;-69
2021/03/20 00:34:29;;;;;;;21.37;9.33;;;;;;;0.12;69.60;100151.91;1773771;80;21185;-69
2021/03/20 00:36:59;;;;;;;14.50;8.10;;;;;;;0.12;69.65;100148.08;1773661;80;20942;-68
2021/03/20 00:39:32;;;;;;;16.82;8.90;;;;;;;0.12;69.77;100151.06;1773854;81;20990;-69
2021/03/20 00:42:00;;;;;;;23.15;9.68;;;;;;;0.11;70.03;100151.93;1773726;81;20942;-69
2021/03/20 00:44:30;;;;;;;22.13;9.30;;;;;;;0.11;70.27;100149.37;1773752;80;20926;-69
2021/03/20 00:46:58;;;;;;;20.60;8.88;;;;;;;0.12;70.52;100151.06;1773803;81;22212;-69
2021/03/20 00:49:27;;;;;;;15.75;8.45;;;;;;;0.11;70.59;100148.09;1748330;81;21001;-69
2021/03/20 00:51:56;;;;;;;14.65;7.58;;;;;;;0.11;70.56;100151.93;1773631;81;21433;-69
2021/03/20 00:54:25;;;;;;;11.48;6.92;;;;;;;0.10;70.60;100143.41;1773640;81;20986;-69
2021/03/20 00:56:55;;;;;;;11.18;6.67;;;;;;;0.09;70.62;100147.26;1773736;80;21547;-69
2021/03/20 00:59:23;;;;;;;13.85;6.37;;;;;;;0.10;70.67;100145.11;1748360;81;21825;-69
2021/03/20 01:01:52;;;;;;;9.08;6.15;;;;;;;0.11;70.58;100149.37;1773655;81;21017;-69
2021/03/20 01:04:21;;;;;;;11.20;5.67;;;;;;;0.09;70.49;100145.98;1773732;81;20923;-69
2021/03/20 01:06:52;;;;;;;6.80;5.45;;;;;;;0.09;70.58;100154.51;1773672;81;20906;-69
2021/03/20 01:09:23;;;;;;;6.12;5.00;;;;;;;0.09;70.47;100154.94;1773240;81;20934;-69
2021/03/20 01:11:51;;;;;;;9.18;5.60;;;;;;;0.06;70.48;100154.54;1773682;81;21205;-69
2021/03/20 01:14:19;;;;;;;10.55;6.20;;;;;;;0.04;70.56;100161.82;1773676;81;20946;-69
2021/03/20 01:16:49;;;;;;;13.48;7.22;;;;;;;0.00;70.71;100158.02;1747388;81;20938;-69
2021/03/20 01:19:19;;;;;;;16.15;7.92;;;;;;;-0.04;70.84;100156.38;1773693;81;21024;-69
2021/03/20 01:21:47;;;;;;;13.98;7.10;;;;;;;-0.08;70.99;100153.44;1747450;81;20997;-70
2021/03/20 01:24:17;;;;;;;13.13;6.42;;;;;;;-0.09;71.19;100159.86;1773704;80;21374;-69
2021/03/20 01:26:46;;;;;;;14.25;6.40;;;;;;;-0.12;71.49;100153.05;1773774;81;21591;-69
2021/03/20 01:29:15;;;;;;;17.90;8.00;;;;;;;-0.14;71.73;100150.94;1773689;80;21018;-70
2021/03/20 01:31:45;;;;;;;17.02;7.17;;;;;;;-0.16;71.95;100147.55;1773604;81;21523;-69
2021/03/20 01:34:14;;;;;;;11.80;6.28;;;;;;;-0.18;72.07;100145.44;1773767;80;21033;-69
2021/03/20 01:36:43;;;;;;;11.25;5.75;;;;;;;-0.20;72.14;100145.89;1773722;81;21210;-69
2021/03/20 01:39:12;;;;;;;12.30;5.53;;;;;;;-0.23;72.16;100152.31;1747859;81;20953;-69
2021/03/20 01:41:44;;;;;;;11.30;6.50;;;;;;;-0.26;72.15;100153.63;1773770;80;20927;-69
2021/03/20 01:44:23;;;;;;;12.33;5.85;;;;;;;-0.28;72.10;100159.62;1773701;80;20923;-69
2021/03/20 01:46:54;;;;;;;6.95;4.60;;;;;;;-0.32;71.97;100160.08;1773765;81;20926;-69
2021/03/20 01:49:38;;;;;;;8.80;4.97;;;;;;;-0.38;71.95;100159.70;1773710;81;21095;-69
2021/03/20 01:52:20;;;;;;;8.60;5.50;;;;;;;-0.40;71.84;100159.33;1775803;80;20997;-69
2021/03/20 01:54:55;;;;;;;6.20;4.80;;;;;;;-0.44;71.77;100157.66;1780627;80;20938;-69
2021/03/20 01:57:32;;;;;;;10.38;5.33;;;;;;;-0.46;71.77;100160.66;1780632;80;20958;-68
2021/03/20 02:00:01;;;;;;;14.38;6.10;;;;;;;-0.49;71.57;100153.86;1780810;80;20898;-68
2021/03/20 02:02:31;;;;;;;8.55;5.40;;;;;;;-0.49;71.63;100156.86;1779469;80;21903;-69
2021/03/20 02:05:02;;;;;;;12.63;5.90;;;;;;;-0.49;71.56;100158.98;1678825;83;21508;-69
2021/03/20 02:07:32;;;;;;;13.80;6.00;;;;;;;-0.50;71.66;100156.00;1791459;80;21376;-70
2021/03/20 02:10:06;;;;;;;8.30;5.28;;;;;;;-0.48;71.70;100154.72;1720238;83;21077;-70
2021/03/20 02:12:36;;;;;;;6.03;4.33;;;;;;;-0.49;71.78;100152.59;1719902;83;21025;-70
2021/03/20 02:15:12;;;;;;;6.15;4.58;;;;;;;-0.49;71.83;100160.27;1721463;83;22117;-69
2021/03/20 02:17:46;;;;;;;5.83;4.90;;;;;;;-0.50;71.94;100159.00;1788278;80;20951;-70
2021/03/20 02:20:53;;;;;;;5.37;4.85;;;;;;;-0.51;71.98;100168.81;1711366;82;21020;-70
2021/03/20 02:23:35;;;;;;;4.78;4.30;;;;;;;-0.52;72.03;100164.55;1731674;81;20954;-71
2021/03/20 02:26:41;;;;;;;4.87;4.00;;;;;;;-0.51;71.98;100166.25;1756939;80;21060;-71
2021/03/20 02:30:05;;;;;;;4.85;4.28;;;;;;;-0.52;72.01;100162.00;1776664;79;20991;-71
2021/03/20 02:33:01;;;;;;;4.53;4.12;;;;;;;-0.52;72.04;100172.23;1734201;82;21036;-70
2021/03/20 02:35:57;;;;;;;4.50;3.70;;;;;;;-0.55;72.06;100170.55;1799957;79;20985;-69
2021/03/20 02:38:55;;;;;;;4.87;3.77;;;;;;;-0.55;72.13;100164.58;1775255;80;21556;-70
2021/03/20 02:41:29;;;;;;;3.95;3.35;;;;;;;-0.54;72.15;100165.84;1711591;82;21604;-70
2021/03/20 02:44:21;;;;;;;4.20;3.80;;;;;;;-0.55;72.07;100159.47;1743848;81;21202;-69
2021/03/20 02:47:04;;;;;;;4.40;3.85;;;;;;;-0.58;72.11;100169.72;1718828;83;20974;-69
2021/03/20 02:50:01;;;;;;;4.03;3.62;;;;;;;-0.59;72.20;100175.70;1757409;81;21009;-70
2021/03/20 02:52:44;;;;;;;4.33;3.92;;;;;;;-0.60;72.33;100174.84;1758439;81;22361;-70
2021/03/20 02:55:25;;;;;;;3.95;3.65;;;;;;;-0.61;72.37;100173.15;1760927;81;20945;-70
2021/03/20 02:58:01;;;;;;;4.58;3.62;;;;;;;-0.63;72.39;100171.47;1760892;81;21922;-70
2021/03/20 03:01:01;;;;;;;7.15;3.92;;;;;;;-0.63;72.54;100177.86;1761013;81;20969;-70
2021/03/20 03:03:34;;;;;;;4.75;4.00;;;;;;;-0.64;72.65;100174.45;1760817;81;20906;-69
2021/03/20 03:06:46;;;;;;;6.37;3.85;;;;;;;-0.64;72.69;100174.88;1760832;81;20961;-69
2021/03/20 03:09:42;;;;;;;5.17;4.15;;;;;;;-0.64;72.79;100171.89;1760879;81;21001;-69
2021/03/20 03:12:18;;;;;;;6.78;4.30;;;;;;;-0.63;72.86;100172.74;1760937;81;22322;-69
2021/03/20 03:14:53;;;;;;;;;;;;;;;-0.62;72.87;100177.00;1763415;81;21570;-70
2021/03/20 03:17:24;;;;;;;5.55;4.60;;;;;;;-0.61;72.99;100181.25;1737442;82;20178;-69
2021/03/20 03:19:57;;;;;;;5.35;4.70;;;;;;;-0.61;73.11;100175.70;1760759;81;20960;-69
2021/03/20 03:22:43;;;;;;;8.18;5.10;;;;;;;-0.61;73.24;100181.25;1760757;81;20925;-68
2021/03/20 03:25:13;;;;;;;8.83;5.42;;;;;;;-0.60;73.31;100177.41;1760500;81;21212;-69
2021/03/20 03:27:46;;;;;;;11.28;5.55;;;;;;;-0.61;73.32;100180.82;1760681;81;21353;-69
2021/03/20 03:30:17;;;;;;;6.55;4.45;;;;;;;-0.65;73.38;100182.13;1760846;81;21056;-69
2021/03/20 03:32:49;;;;;;;10.13;5.05;;;;;;;-0.69;73.49;100187.70;1761010;81;21044;-69
2021/03/20 03:35:26;;;;;;;7.87;5.10;;;;;;;-0.72;73.52;100191.12;1761142;81;20957;-69
2021/03/20 03:38:29;;;;;;;10.78;5.47;;;;;;;-0.74;73.64;100186.45;1760975;81;21595;-69
2021/03/20 03:41:10;;;;;;;8.50;4.58;;;;;;;-0.75;73.74;100189.02;1752208;81;20988;-69
2021/03/20 03:43:38;;;;;;;10.03;4.78;;;;;;;-0.75;73.84;100187.31;1761126;81;21550;-69
2021/03/20 03:46:07;;;;;;;10.28;4.78;;;;;;;-0.75;73.90;100191.58;1760953;81;20986;-69
2021/03/20 03:48:36;;;;;;;10.23;4.80;;;;;;;-0.78;74.00;100193.73;1761050;81;21616;-69
2021/03/20 03:51:16;;;;;;;7.85;4.95;;;;;;;-0.78;74.04;100192.87;1760949;81;22109;-70
2021/03/20 03:53:45;;;;;;;8.30;4.08;;;;;;;-0.80;74.03;100191.61;1760828;81;21016;-70
2021/03/20 03:56:38;;;;;;;5.85;4.05;;;;;;;-0.80;74.00;100198.00;1760993;81;20901;-69
2021/03/20 03:59:37;;;;;;;5.35;4.17;;;;;;;-0.79;74.05;100194.59;1760737;81;21024;-70
2021/03/20 04:02:43;;;;;;;3.98;3.58;;;;;;;-0.76;74.20;100198.83;1761043;81;21000;-70
2021/03/20 04:05:39;;;;;;;4.80;3.72;;;;;;;-0.73;74.10;100197.53;1761145;81;21335;-70
2021/03/20 04:08:45;;;;;;;5.17;3.87;;;;;;;-0.75;74.03;100201.80;1761083;81;21056;-69
2021/03/20 04:11:19;;;;;;;5.20;3.87;;;;;;;-0.77;74.10;100201.82;1761021;81;20965;-69
2021/03/20 04:13:55;;;;;;;4.10;3.70;;;;;;;-0.76;74.03;100198.83;1760924;81;21024;-69
2021/03/20 04:16:45;;;;;;;4.40;4.00;;;;;;;-0.76;74.05;100208.62;1760991;81;21218;-69
2021/03/20 04:19:54;;;;;;;5.53;4.17;;;;;;;-0.73;74.00;100212.88;1761046;81;21651;-70
2021/03/20 04:22:49;;;;;;;10.08;7.45;;;;;;;-0.70;74.05;100207.73;1761362;81;20913;-71
2021/03/20 04:25:50;;;;;;;9.53;5.85;;;;;;;-0.69;74.03;100211.56;1761334;81;21557;-70
2021/03/20 04:28:43;;;;;;;5.42;4.75;;;;;;;-0.63;74.01;100205.98;1761086;81;20944;-71
2021/03/20 04:31:47;;;;;;;5.42;4.70;;;;;;;-0.60;73.94;100205.53;1761224;81;21459;-71
2021/03/20 04:34:24;;;;;;;6.97;5.22;;;;;;;-0.56;73.93;100207.64;1761027;81;21274;-68
2021/03/20 04:37:03;;;;;;;7.00;5.90;;;;;;;-0.49;73.82;100210.56;1760935;81;21024;-68
2021/03/20 04:39:35;;;;;;;10.48;6.72;;;;;;;-0.46;73.68;100211.39;1761267;81;21479;-68
2021/03/20 04:42:06;;;;;;;8.88;7.53;;;;;;;-0.43;73.57;100216.91;1759360;81;21016;-68
2021/03/20 04:44:36;;;;;;;15.50;10.15;;;;;;;-0.41;73.64;100216.05;1760998;81;21042;-68
2021/03/20 04:47:10;;;;;;;18.05;10.65;;;;;;;-0.36;73.63;100216.82;1761041;81;21417;-68
2021/03/20 04:49:48;;;;;;;56.00;19.32;;;;;;;-0.31;73.64;100216.78;1761129;81;20953;-68
2021/03/20 04:52:36;;;;;;;169.30;62.88;;;;;;;-0.24;73.54;100218.86;1761025;81;21049;-68
2021/03/20 04:55:08;;;;;;;130.40;51.90;;;;;;;-0.19;73.48;100222.23;1760938;81;21012;-68
2021/03/20 04:57:50;;;;;;;106.00;42.40;;;;;;;-0.15;73.49;100222.19;1761003;81;21032;-69
2021/03/20 05:00:33;;;;;;;123.72;47.95;;;;;;;-0.10;73.37;100225.98;1758997;81;21585;-69
2021/03/20 05:03:20;;;;;;;142.28;54.23;;;;;;;-0.07;73.32;100225.52;1760919;81;20957;-70
2021/03/20 05:05:53;;;;;;;91.32;39.88;;;;;;;-0.01;72.98;100226.75;1721783;81;20974;-68
2021/03/20 05:08:35;;;;;;;70.35;30.97;;;;;;;0.04;72.66;100227.10;1760890;81;21067;-68
2021/03/20 05:11:17;;;;;;;79.65;34.48;;;;;;;0.06;72.48;100226.66;1760954;81;21059;-68
2021/03/20 05:14:12;;;;;;;58.78;25.30;;;;;;;0.09;72.34;100228.75;1760881;81;21386;-68
2021/03/20 05:16:53;;;;;;;66.60;30.85;;;;;;;0.14;72.23;100228.70;1760907;81;21337;-69
2021/03/20 05:19:26;;;;;;;44.83;21.85;;;;;;;0.19;72.22;100235.48;1760940;81;21048;-68
2021/03/20 05:21:56;;;;;;;44.70;21.35;;;;;;;0.23;71.87;100237.58;1760902;81;21016;-68
2021/03/20 05:24:37;;;;;;;49.80;24.25;;;;;;;0.24;71.86;100237.99;1761031;81;21012;-68
2021/03/20 05:27:08;;;;;;;34.38;17.65;;;;;;;0.25;71.75;100238.41;1761032;81;21213;-68
2021/03/20 05:29:36;;;;;;;22.58;13.70;;;;;;;0.27;71.88;100241.38;1772836;79;21071;-69
2021/03/20 05:32:05;;;;;;;17.55;10.70;;;;;;;0.35;71.85;100246.41;1773476;79;21149;-69
2021/03/20 05:34:38;;;;;;;16.45;11.48;;;;;;;0.43;71.51;100246.30;1772635;79;21038;-68
2021/03/20 05:37:09;;;;;;;15.35;10.28;;;;;;;0.48;71.36;100246.66;1737532;82;21008;-68
2021/03/20 05:39:37;;;;;;;21.15;13.93;;;;;;;0.52;71.06;100248.33;1711077;82;22332;-68
2021/03/20 05:42:19;;;;;;;11.63;8.90;;;;;;;0.56;71.19;100247.42;1737483;82;21637;-68
2021/03/20 05:45:13;;;;;;;8.80;5.55;;;;;;;0.61;71.06;100244.37;1737538;82;21040;-68
2021/03/20 05:48:06;;;;;;;12.98;10.60;;;;;;;0.69;70.76;100253.69;1751799;79;21087;-69
2021/03/20 05:50:49;;;;;;;14.47;8.28;;;;;;;0.73;70.60;100257.48;1735264;79;21030;-70
2021/03/20 05:53:38;;;;;;;6.03;5.33;;;;;;;0.77;70.29;100259.58;1749564;82;21388;-68
2021/03/20 05:56:21;;;;;;;7.50;6.00;;;;;;;0.81;70.17;100259.48;1746971;82;21047;-69
2021/03/20 05:59:01;;;;;;;6.72;5.47;;;;;;;0.85;70.06;100261.14;1747509;80;21372;-69
2021/03/20 06:01:50;;;;;;;10.78;6.85;;;;;;;0.89;70.03;100259.39;1759541;81;21001;-68
2021/03/20 06:04:41;;;;;;;17.70;9.60;;;;;;;0.96;70.20;100268.27;1759588;81;20945;-69
2021/03/20 06:07:48;;;;;;;20.37;10.50;;;;;;;1.08;70.00;100267.27;1738328;81;21217;-70
2021/03/20 06:10:55;;;;;;;33.42;16.45;;;;;;;1.19;69.42;100269.69;1759622;81;21017;-69
2021/03/20 06:13:35;;;;;;;17.60;10.25;;;;;;;1.19;69.13;100280.80;1759481;81;21119;-69
2021/03/20 06:16:33;;;;;;;27.25;14.73;;;;;;;1.21;69.35;100273.89;1759566;81;20945;-69
2021/03/20 06:19:25;;;;;;;15.75;8.60;;;;;;;1.32;69.56;100273.31;1759547;81;20949;-68
2021/03/20 06:22:12;;;;;;;12.37;7.85;;;;;;;1.48;69.27;100273.94;1759671;81;21052;-69
2021/03/20 06:25:19;;;;;;;23.50;12.13;;;;;;;1.55;68.92;100270.41;1759721;81;21571;-70
2021/03/20 06:27:53;;;;;;;25.05;14.10;;;;;;;1.63;68.94;100268.98;1759682;81;20996;-69
2021/03/20 06:30:43;;;;;;;26.12;13.40;;;;;;;1.75;69.07;100267.94;1738298;81;21514;-70
2021/03/20 06:33:36;;;;;;;12.50;7.65;;;;;;;1.86;68.86;100279.73;1759307;81;21104;-69
2021/03/20 06:36:10;;;;;;;23.02;10.95;;;;;;;1.97;68.55;100278.28;1769465;80;21891;-71
2021/03/20 06:39:11;;;;;;;24.85;12.25;;;;;;;2.08;68.36;100276.78;1780504;80;21511;-70
2021/03/20 06:41:54;;;;;;;17.77;9.60;;;;;;;2.22;67.75;100279.52;1890315;76;23217;-70
2021/03/20 06:44:31;;;;;;;11.70;5.80;;;;;;;2.15;67.75;100282.22;1783224;80;20910;-69
2021/03/20 06:46:59;;;;;;;6.80;4.72;;;;;;;2.11;67.89;100284.44;1815327;79;22196;-70
2021/03/20 06:49:38;;;;;;;17.20;9.23;;;;;;;2.13;67.78;100286.10;1783808;80;21036;-70
2021/03/20 06:52:08;;;;;;;15.30;8.70;;;;;;;2.18;67.80;100283.45;1815407;79;21001;-69
2021/03/20 06:54:38;;;;;;;16.23;8.50;;;;;;;2.23;67.88;100282.50;1783116;80;20997;-71
2021/03/20 06:57:11;;;;;;;13.45;7.72;;;;;;;2.29;67.72;100286.69;1815516;79;21025;-69
2021/03/20 06:59:39;;;;;;;8.93;5.50;;;;;;;2.34;67.63;100282.31;1783222;80;21425;-70
2021/03/20 07:02:41;;;;;;;15.32;7.05;;;;;;;2.37;66.99;100281.41;1757068;79;21370;-70
2021/03/20 07:05:21;;;;;;;7.30;5.65;;;;;;;2.39;67.05;100283.08;1783229;80;20930;-70
2021/03/20 07:08:16;;;;;;;7.12;4.90;;;;;;;2.51;66.38;100281.53;1811778;79;21583;-70
2021/03/20 07:10:51;;;;;;;6.83;4.95;;;;;;;2.67;66.32;100280.37;1783187;79;21460;-70
2021/03/20 07:13:33;;;;;;;13.18;5.55;;;;;;;2.90;65.63;100288.88;1815250;79;21202;-70
2021/03/20 07:16:12;;;;;;;9.43;7.87;;;;;;;3.11;65.70;100286.75;1781090;80;21020;-70
2021/03/20 07:18:53;;;;;;;7.72;5.92;;;;;;;3.39;65.01;100292.12;1815237;79;20997;-70
2021/03/20 07:21:34;;;;;;;9.65;6.80;;;;;;;3.68;65.34;100285.39;1783168;80;20961;-70
2021/03/20 07:24:15;;;;;;;6.05;4.85;;;;;;;4.03;64.40;100290.96;1782166;79;21551;-71
2021/03/20 07:27:04;;;;;;;8.40;6.53;;;;;;;4.39;63.42;100287.05;1783174;80;21663;-69
2021/03/20 07:30:02;;;;;;;6.35;4.78;;;;;;;4.58;61.52;100291.24;1815375;79;20937;-70
2021/03/20 07:32:38;;;;;;;5.97;4.25;;;;;;;4.60;61.82;100294.18;1776719;80;20997;-69
2021/03/20 07:35:31;;;;;;;5.58;4.83;;;;;;;4.78;60.72;100291.55;1815276;79;20942;-71
2021/03/20 07:38:27;;;;;;;4.45;4.05;;;;;;;4.80;59.43;100291.50;1783147;80;20945;-69
2021/03/20 07:41:08;;;;;;;6.65;3.60;;;;;;;4.74;59.72;100294.25;1815150;79;21274;-70
2021/03/20 07:43:39;;;;;;;6.25;4.28;;;;;;;4.83;59.96;100301.70;1783124;80;20942;-69
2021/03/20 07:46:18;;;;;;;4.80;4.15;;;;;;;4.94;59.29;100297.09;1815220;79;21472;-69
2021/03/20 07:48:46;;;;;;;5.40;4.08;;;;;;;4.98;58.59;100297.41;1783143;80;21581;-70
2021/03/20 07:51:17;;;;;;;4.10;3.52;;;;;;;5.04;58.15;100298.52;1757075;79;20882;-69
2021/03/20 07:53:50;;;;;;;4.05;3.67;;;;;;;5.13;57.75;100296.97;1782626;80;21104;-69
2021/03/20 07:56:36;;;;;;;3.60;3.30;;;;;;;5.19;56.44;100299.38;1814629;79;20993;-70
2021/03/20 07:59:24;;;;;;;3.77;3.47;;;;;;;5.12;56.31;100295.72;1782597;80;20902;-70
2021/03/20 08:01:59;;;;;;;3.72;3.40;;;;;;;5.13;55.68;100298.26;1814592;79;21013;-70
2021/03/20 08:05:00;;;;;;;3.92;3.50;;;;;;;5.13;55.25;100294.83;1782805;80;21385;-70
2021/03/20 08:07:32;;;;;;;4.08;3.72;;;;;;;5.12;55.33;100297.02;1814669;79;21202;-70
2021/03/20 08:10:28;;;;;;;3.45;3.15;;;;;;;5.04;55.61;100297.23;1782518;80;21570;-70
2021/03/20 08:13:21;;;;;;;4.40;3.75;;;;;;;5.07;56.02;100303.59;1814516;79;20938;-70
2021/03/20 08:15:56;;;;;;;5.72;4.15;;;;;;;5.17;56.56;100301.16;1727728;80;21017;-70
2021/03/20 08:18:38;;;;;;;4.05;3.37;;;;;;;5.26;57.51;100299.56;1814836;79;21484;-69
2021/03/20 08:21:27;;;;;;;3.65;3.35;;;;;;;5.31;57.19;100295.11;1782568;80;21204;-69
2021/03/20 08:24:26;;;;;;;3.72;3.42;;;;;;;5.35;56.92;100299.29;1780820;80;20954;-70
2021/03/20 08:27:23;;;;;;;3.25;3.00;;;;;;;5.33;55.92;100300.22;1814713;79;21512;-68
2021/03/20 08:30:34;;;;;;;3.95;3.10;;;;;;;5.24;56.57;100298.77;1814608;79;21562;-68
2021/03/20 08:33:40;;;;;;;3.77;3.47;;;;;;;5.21;55.49;100300.59;1782593;80;21475;-69
2021/03/20 08:36:40;;;;;;;4.50;3.05;;;;;;;5.10;54.42;100299.64;1814571;79;21201;-68
2021/03/20 08:39:30;;;;;;;3.83;3.52;;;;;;;5.11;53.21;100302.63;1782532;80;20970;-70
2021/03/20 08:42:23;;;;;;;3.70;3.40;;;;;;;5.16;53.66;100300.75;1814503;79;20977;-69
2021/03/20 08:45:31;;;;;;;3.33;3.02;;;;;;;5.20;54.06;100303.61;1782532;80;21444;-68
2021/03/20 08:48:34;;;;;;;3.47;3.13;;;;;;;5.24;55.35;100297.47;1815132;79;21041;-68
2021/03/20 08:51:37;;;;;;;3.72;3.42;;;;;;;5.39;53.39;100307.79;1782648;80;21266;-68
2021/03/20 08:54:33;;;;;;;3.85;3.35;;;;;;;5.38;53.63;100303.52;1780874;80;20961;-68
2021/03/20 08:57:33;;;;;;;3.30;3.00;;;;;;;5.42;53.99;100301.24;1814644;79;20934;-68
2021/03/20 09:00:03;;;;;;;;;;;;;;;5.59;53.62;100298.14;1785214;80;21649;-68
2021/03/20 09:02:38;;;;;;;3.55;2.90;;;;;;;5.83;53.86;100298.64;1814803;79;20410;-68
2021/03/20 09:05:16;;;;;;;3.62;3.33;;;;;;;5.94;51.55;100296.59;1782512;80;21138;-68
2021/03/20 09:08:02;;;;;;;3.40;3.12;;;;;;;5.92;51.00;100300.96;1814561;79;20964;-69
2021/03/20 09:10:42;;;;;;;3.22;3.00;;;;;;;5.90;51.56;100295.00;1782559;80;20941;-67
2021/03/20 09:13:29;;;;;;;3.45;3.15;;;;;;;5.89;51.39;100294.60;1814634;79;21000;-68
2021/03/20 09:16:01;;;;;;;8.87;3.87;;;;;;;5.84;50.42;100292.58;1782792;79;20917;-68
2021/03/20 09:18:31;;;;;;;3.35;3.05;;;;;;;5.73;52.06;100295.95;1814594;79;21204;-67
2021/03/20 09:21:03;;;;;;;4.28;3.83;;;;;;;5.73;52.54;100295.95;1726192;80;21602;-68
2021/03/20 09:23:44;;;;;;;4.12;3.50;;;;;;;5.80;52.76;100289.69;1814592;79;21408;-69
2021/03/20 09:26:34;;;;;;;3.75;3.45;;;;;;;5.89;52.65;100295.05;1782533;80;21044;-69
2021/03/20 09:29:31;;;;;;;2.95;2.75;;;;;;;5.93;51.59;100288.44;1814579;79;20993;-69
2021/03/20 09:32:11;;;;;;;3.50;3.20;;;;;;;5.92;52.49;100292.36;1782543;80;21476;-69
2021/03/20 09:34:45;;;;;;;3.70;3.37;;;;;;;5.98;52.04;100288.28;1814091;79;21535;-70
2021/03/20 09:37:23;;;;;;;3.70;3.35;;;;;;;6.03;50.69;100293.67;1782628;80;20950;-68
2021/03/20 09:40:20;;;;;;;3.35;3.00;;;;;;;5.95;49.74;100289.23;1814538;79;21013;-69
2021/03/20 09:42:51;;;;;;;4.42;3.30;;;;;;;5.93;50.99;100291.47;1749005;81;21644;-69
2021/03/20 09:45:26;;;;;;;4.12;3.35;;;;;;;5.99;50.48;100289.53;1779612;80;21567;-69
2021/03/20 09:47:55;;;;;;;6.72;4.53;;;;;;;6.08;52.39;100288.35;1779851;80;20926;-69
2021/03/20 09:50:32;;;;;;;3.95;3.62;;;;;;;6.19;51.49;100280.23;1780002;80;21511;-69
2021/03/20 09:53:15;;;;;;;4.08;3.67;;;;;;;6.30;50.69;100288.03;1780231;80;21001;-69
2021/03/20 09:55:50;;;;;;;3.47;2.95;;;;;;;6.36;47.40;100286.98;1780046;80;21029;-69
2021/03/20 09:58:24;;;;;;;4.47;4.07;;;;;;;6.23;46.26;100289.13;1780498;80;21212;-68
2021/03/20 10:01:01;;;;;;;7.03;4.03;;;;;;;6.01;45.78;100293.33;1780234;80;21021;-68
2021/03/20 10:03:54;;;;;;;3.77;3.45;;;;;;;5.74;47.45;100301.52;1780029;80;21015;-68
2021/03/20 10:06:31;;;;;;;5.22;4.12;;;;;;;5.68;49.22;100305.13;1760868;80;21074;-68
2021/03/20 10:09:09;;;;;;;3.87;3.52;;;;;;;5.83;51.34;100287.45;1780166;80;21013;-68
2021/03/20 10:12:01;;;;;;;3.60;2.92;;;;;;;5.99;48.04;100304.20;1781988;80;21648;-69
2021/03/20 10:14:36;;;;;;;4.47;4.08;;;;;;;5.89;45.34;100302.35;1727265;80;20962;-68
2021/03/20 10:17:20;;;;;;;5.20;4.30;;;;;;;5.63;46.82;100300.55;1781227;80;21009;-69
2021/03/20 10:20:18;;;;;;;5.92;5.17;;;;;;;5.43;49.01;100309.39;1783438;80;21009;-68
2021/03/20 10:22:53;;;;;;;5.10;4.60;;;;;;;5.32;49.38;100312.29;1783318;80;20997;-68
2021/03/20 10:25:22;;;;;;;4.87;4.40;;;;;;;5.29;50.49;100305.08;1783791;80;21204;-69
2021/03/20 10:28:02;;;;;;;6.47;5.70;;;;;;;5.32;51.07;100301.96;1780539;80;21001;-68
2021/03/20 10:30:35;;;;;;;5.08;4.53;;;;;;;5.40;50.46;100309.48;1762109;80;21504;-69
2021/03/20 10:33:18;;;;;;;4.33;3.92;;;;;;;5.40;49.32;100298.30;1780044;80;20930;-69
2021/03/20 10:35:46;;;;;;;4.30;3.90;;;;;;;5.39;50.59;100300.05;1779566;80;20906;-68
2021/03/20 10:38:28;;;;;;;5.80;4.87;;;;;;;5.52;51.31;100297.94;1779993;80;21480;-69
2021/03/20 10:41:06;;;;;;;5.45;3.95;;;;;;;5.69;50.29;100304.69;1750406;79;21053;-68
2021/03/20 10:43:44;;;;;;;;;;;;;;;5.82;50.64;100296.95;1782010;79;21025;-69
2021/03/20 10:46:18;;;;;;;7.70;4.25;;;;;;;5.97;51.40;100299.08;1801537;79;20134;-69
2021/03/20 10:48:51;;;;;;;4.63;4.07;;;;;;;6.09;51.20;100300.38;1772067;81;20946;-68
2021/03/20 10:51:20;;;;;;;3.95;3.65;;;;;;;6.09;49.22;100288.75;1803438;79;21762;-68
2021/03/20 10:53:54;;;;;;;3.95;3.58;;;;;;;6.03;48.81;100291.09;1771684;80;20956;-69
2021/03/20 10:56:33;;;;;;;3.83;3.52;;;;;;;5.91;48.23;100295.84;1770137;81;20954;-69
2021/03/20 10:59:24;;;;;;;4.05;3.65;;;;;;;5.71;48.19;100295.15;1804928;79;20984;-68
2021/03/20 11:01:54;;;;;;;4.08;3.77;;;;;;;5.52;48.72;100292.33;1771773;81;21029;-69
2021/03/20 11:04:32;;;;;;;5.67;3.90;;;;;;;5.42;49.80;100291.36;1803506;79;21266;-68
2021/03/20 11:07:01;;;;;;;4.45;3.90;;;;;;;5.41;48.91;100287.93;1771705;81;20993;-69
2021/03/20 11:09:32;;;;;;;4.00;3.70;;;;;;;5.39;48.17;100292.74;1803408;79;20962;-68
2021/03/20 11:12:08;;;;;;;5.95;4.12;;;;;;;5.30;48.66;100289.54;1771705;81;20994;-68
2021/03/20 11:14:52;;;;;;;7.80;4.25;;;;;;;5.19;49.83;100290.34;1803565;79;20930;-69
2021/03/20 11:17:27;;;;;;;5.62;3.92;;;;;;;5.21;51.10;100285.94;1771660;81;21210;-69
2021/03/20 11:20:16;;;;;;;4.10;3.70;;;;;;;5.30;51.53;100289.54;1803362;79;20954;-69
2021/03/20 11:22:44;;;;;;;3.67;3.37;;;;;;;5.33;49.38;100287.31;1771739;81;21357;-67
2021/03/20 11:25:22;;;;;;;3.65;3.20;;;;;;;5.25;49.00;100281.53;1803531;79;21499;-68
2021/03/20 11:28:13;;;;;;;4.85;3.92;;;;;;;5.21;48.89;100280.78;1771797;81;21582;-70
2021/03/20 11:30:49;;;;;;;3.50;3.17;;;;;;;5.18;49.28;100282.19;1803583;79;21199;-69
2021/03/20 11:33:22;;;;;;;3.65;3.35;;;;;;;5.22;49.67;100282.47;1771940;81;21591;-69
2021/03/20 11:35:55;;;;;;;3.70;3.15;;;;;;;5.31;49.94;100277.03;1803548;79;20994;-69
2021/03/20 11:38:25;;;;;;;4.12;3.65;;;;;;;5.45;50.12;100274.48;1771933;80;21598;-68
2021/03/20 11:41:07;;;;;;;5.12;4.20;;;;;;;5.58;50.15;100273.20;1803150;79;22099;-68
2021/03/20 11:43:49;;;;;;;4.17;3.77;;;;;;;5.73;50.17;100273.14;1771096;80;21704;-68
2021/03/20 11:46:25;;;;;;;3.70;3.40;;;;;;;5.86;49.46;100272.70;1777975;79;20954;-69
2021/03/20 11:48:58;;;;;;;5.12;4.03;;;;;;;5.86;47.74;100265.39;1766537;81;21302;-69
2021/03/20 11:51:33;;;;;;;5.45;3.45;;;;;;;5.76;48.73;100270.02;1767157;81;20954;-68
2021/03/20 11:54:28;;;;;;;5.97;3.83;;;;;;;5.73;48.53;100263.65;1767693;81;20990;-68
2021/03/20 11:57:36;;;;;;;5.25;4.10;;;;;;;5.68;48.07;100266.38;1848455;76;22936;-71
2021/03/20 12:00:36;;;;;;;4.47;3.65;;;;;;;5.56;47.22;100265.95;1818489;79;20966;-69
2021/03/20 12:03:22;;;;;;;4.65;4.00;;;;;;;5.44;47.35;100276.22;1818491;79;22078;-70
2021/03/20 12:05:54;;;;;;;3.90;3.50;;;;;;;5.40;48.46;100269.45;1818104;77;21036;-70
2021/03/20 12:08:30;;;;;;;4.42;3.67;;;;;;;5.46;48.32;100261.97;1813965;79;20981;-71
2021/03/20 12:11:10;;;;;;;5.60;4.05;;;;;;;5.56;47.99;100267.24;1818350;78;21598;-70
2021/03/20 12:13:51;;;;;;;4.33;3.70;;;;;;;5.66;45.92;100260.86;1818585;79;21440;-69
2021/03/20 12:16:38;;;;;;;3.92;3.60;;;;;;;5.73;46.62;100257.64;1818453;78;21189;-69
2021/03/20 12:19:20;;;;;;;3.90;3.50;;;;;;;5.87;47.41;100260.17;1818351;78;20929;-69
2021/03/20 12:22:04;;;;;;;7.67;4.15;;;;;;;6.03;47.87;100262.66;1818432;78;20973;-68
2021/03/20 12:24:47;;;;;;;4.72;3.83;;;;;;;6.08;47.23;100261.66;1789137;79;21001;-69
2021/03/20 12:27:35;;;;;;;4.00;3.10;;;;;;;6.01;48.10;100270.91;1818543;79;20918;-70
2021/03/20 12:30:21;;;;;;;3.40;3.15;;;;;;;5.92;49.38;100257.03;1818546;77;21091;-70